createdAt,value
2023-04-30T00:05:01.154Z,14.19
2023-04-30T00:10:05.657Z,14.18
2023-04-30T00:15:09.853Z,14.17
2023-04-30T00:20:14.535Z,14.36
2023-04-30T00:25:17.746Z,14.25
2023-04-30T00:30:22.017Z,14.14
2023-04-30T00:35:26.077Z,13.69
2023-04-30T00:40:30.408Z,13.42
2023-04-30T00:45:34.168Z,13.54
2023-04-30T00:50:38.736Z,13.60
2023-04-30T00:55:42.846Z,13.39
2023-04-30T01:00:47.677Z,13.29
2023-04-30T01:05:54.419Z,13.25
2023-04-30T01:11:36.966Z,13.11
2023-04-30T01:17:32.424Z,12.85
2023-04-30T01:22:46.642Z,12.14
2023-04-30T01:27:56.916Z,12.15
2023-04-30T01:33:02.453Z,12.28
2023-04-30T01:38:35.694Z,12.30
2023-04-30T01:44:01.545Z,12.22
2023-04-30T01:49:17.709Z,12.22
2023-04-30T01:54:31.710Z,12.28
2023-04-30T01:59:39.386Z,12.29
2023-04-30T02:04:43.285Z,12.06
2023-04-30T02:09:46.773Z,12.12
2023-04-30T02:14:50.043Z,12.10
2023-04-30T02:19:54.465Z,12.49
2023-04-30T02:24:59.280Z,12.67
2023-04-30T02:30:03.204Z,13.79
2023-04-30T02:35:07.909Z,14.69
2023-04-30T02:40:12.318Z,14.86
2023-04-30T02:45:16.014Z,15.17
2023-04-30T02:50:19.856Z,15.63
2023-04-30T02:55:23.762Z,16.31
2023-04-30T03:00:27.221Z,16.56
2023-04-30T03:05:30.872Z,16.70
2023-04-30T03:10:34.966Z,16.34
2023-04-30T03:15:38.888Z,16.34
2023-04-30T03:20:42.694Z,16.49
2023-04-30T03:25:46.926Z,16.12
2023-04-30T03:30:51.423Z,15.18
2023-04-30T03:35:55.433Z,15.26
2023-04-30T03:40:59.042Z,15.06
2023-04-30T03:46:02.519Z,14.99
2023-04-30T03:51:06.031Z,14.60
2023-04-30T03:56:09.893Z,14.81
2023-04-30T04:01:14.261Z,14.91
2023-04-30T04:06:18.244Z,14.87
2023-04-30T04:11:23.197Z,14.58
2023-04-30T04:16:27.383Z,14.61
2023-04-30T04:21:32.105Z,14.41
2023-04-30T04:26:38.296Z,14.29
2023-04-30T04:31:43.021Z,14.39
2023-04-30T04:36:48.015Z,14.33
2023-04-30T04:41:51.845Z,13.66
2023-04-30T04:46:56.972Z,14.33
2023-04-30T04:52:00.156Z,14.12
2023-04-30T04:57:03.744Z,14.02
2023-04-30T05:02:07.312Z,13.87
2023-04-30T05:07:11.110Z,14.44
2023-04-30T05:12:15.734Z,13.99
2023-04-30T05:17:19.208Z,14.15
2023-04-30T05:22:22.610Z,14.72
2023-04-30T05:27:27.753Z,14.78
2023-04-30T05:32:31.424Z,14.49
2023-04-30T05:37:35.434Z,14.29
2023-04-30T05:42:41.083Z,14.26
2023-04-30T05:47:45.808Z,14.41
2023-04-30T05:52:50.095Z,14.75
2023-04-30T05:57:53.959Z,15.63
2023-04-30T06:02:58.053Z,15.43
2023-04-30T06:08:01.584Z,15.92
2023-04-30T06:13:05.425Z,16.59
2023-04-30T06:18:14.555Z,17.18
2023-04-30T06:23:18.571Z,18.48
2023-04-30T06:28:22.243Z,18.60
2023-04-30T06:33:25.711Z,18.97
2023-04-30T06:38:30.376Z,20.28
2023-04-30T06:43:34.090Z,19.85
2023-04-30T06:48:37.830Z,18.97
2023-04-30T06:53:41.854Z,20.17
2023-04-30T06:58:45.435Z,21.17
2023-04-30T07:03:48.695Z,21.47
2023-04-30T07:08:52.043Z,20.79
2023-04-30T07:13:55.581Z,20.97
2023-04-30T07:19:00.464Z,20.74
2023-04-30T07:24:03.659Z,19.67
2023-04-30T07:29:07.120Z,18.87
2023-04-30T07:34:10.765Z,18.46
2023-04-30T07:39:14.916Z,19.20
2023-04-30T07:44:19.425Z,19.52
2023-04-30T07:49:23.070Z,21.55
2023-04-30T07:54:27.020Z,21.67
2023-04-30T07:59:30.964Z,21.99
2023-04-30T08:04:35.053Z,22.12
2023-04-30T08:09:38.653Z,22.02
2023-04-30T08:14:41.790Z,21.77
2023-04-30T08:19:44.999Z,23.48
2023-04-30T08:24:48.791Z,23.76
2023-04-30T08:29:52.571Z,22.96
2023-04-30T08:34:56.807Z,21.36
2023-04-30T08:40:01.331Z,22.42
2023-04-30T08:45:05.508Z,21.52
2023-04-30T08:50:10.556Z,21.30
2023-04-30T08:55:13.739Z,21.45
2023-04-30T09:00:17.680Z,22.20
2023-04-30T09:05:20.931Z,21.67
2023-04-30T09:10:25.386Z,21.11
2023-04-30T09:15:30.883Z,20.71
2023-04-30T09:20:35.350Z,20.57
2023-04-30T09:25:43.164Z,20.91
2023-04-30T09:30:47.248Z,20.56
2023-04-30T09:35:51.171Z,20.83
2023-04-30T09:40:55.448Z,21.24
2023-04-30T09:46:00.508Z,21.86
2023-04-30T09:51:04.695Z,21.38
2023-04-30T09:56:09.093Z,20.32
2023-04-30T10:01:13.033Z,20.42
2023-04-30T10:06:19.010Z,20.29
2023-04-30T10:11:24.164Z,20.26
2023-04-30T10:16:31.148Z,18.63
2023-04-30T10:21:36.184Z,18.53
2023-04-30T10:26:40.811Z,18.00
2023-04-30T10:31:48.322Z,17.33
2023-04-30T10:37:06.110Z,17.19
2023-04-30T10:42:12.038Z,16.44
2023-04-30T10:47:20.138Z,16.21
2023-04-30T10:52:30.882Z,15.73
2023-04-30T10:57:44.286Z,15.30
2023-04-30T11:02:49.062Z,15.25
2023-04-30T11:07:58.476Z,15.07
2023-04-30T11:13:07.032Z,14.57
2023-04-30T11:18:11.178Z,14.21
2023-04-30T11:23:25.214Z,13.97
2023-04-30T11:28:38.055Z,14.27
2023-04-30T11:33:41.869Z,14.32
2023-04-30T11:38:46.518Z,14.28
2023-04-30T11:43:50.012Z,13.43
2023-04-30T11:48:53.622Z,13.47
2023-04-30T11:53:57.675Z,12.99
2023-04-30T11:59:01.417Z,13.14
2023-04-30T12:04:05.965Z,13.31
2023-04-30T12:09:10.076Z,13.17
2023-04-30T12:14:15.157Z,13.24
2023-04-30T12:19:20.515Z,13.04
2023-04-30T12:24:28.228Z,13.12
2023-04-30T12:29:31.504Z,12.97
2023-04-30T12:34:35.239Z,13.10
2023-04-30T12:39:39.063Z,12.95
2023-04-30T12:44:45.271Z,12.88
2023-04-30T12:49:50.539Z,13.08
2023-04-30T12:54:55.355Z,13.28
2023-04-30T13:00:00.585Z,13.46
2023-04-30T13:05:04.392Z,13.51
2023-04-30T13:10:08.561Z,13.53
2023-04-30T13:15:12.445Z,13.69
2023-04-30T13:20:16.498Z,13.85
2023-04-30T13:25:21.202Z,14.11
2023-04-30T13:30:25.422Z,14.51
2023-04-30T13:35:29.521Z,14.55
2023-04-30T13:40:34.919Z,14.38
2023-04-30T13:45:39.086Z,14.47
2023-04-30T13:50:42.322Z,14.46
2023-04-30T13:55:45.880Z,14.21
2023-04-30T14:00:49.724Z,14.20
2023-04-30T14:05:55.145Z,14.05
2023-04-30T14:10:59.067Z,13.59
2023-04-30T14:16:03.548Z,13.41
2023-04-30T14:21:08.300Z,13.85
2023-04-30T14:26:15.049Z,14.14
2023-04-30T14:31:18.735Z,15.06
2023-04-30T14:36:22.748Z,14.69
2023-04-30T14:41:27.565Z,13.80
2023-04-30T14:46:32.009Z,13.90
2023-04-30T14:51:37.000Z,13.77
2023-04-30T14:56:41.939Z,13.70
2023-04-30T15:01:46.744Z,13.60
2023-04-30T15:06:51.717Z,13.44
2023-04-30T15:11:56.496Z,13.32
2023-04-30T15:16:59.658Z,13.31
2023-04-30T15:22:03.720Z,12.83
2023-04-30T15:27:07.592Z,12.78
2023-04-30T15:32:11.080Z,12.72
2023-04-30T15:37:14.162Z,12.14
2023-04-30T15:42:17.996Z,12.33
2023-04-30T15:47:23.901Z,12.19
2023-04-30T15:52:27.708Z,12.17
2023-04-30T15:57:31.885Z,12.21
2023-04-30T16:02:36.035Z,11.53
2023-04-30T16:07:43.928Z,11.35
2023-04-30T16:12:48.687Z,11.35
2023-04-30T16:17:53.349Z,11.49
2023-04-30T16:22:58.070Z,12.09
2023-04-30T16:28:02.117Z,11.97
2023-04-30T16:33:06.543Z,11.84
2023-04-30T16:38:10.200Z,11.95
2023-04-30T16:43:15.383Z,12.18
2023-04-30T16:48:18.899Z,12.12
2023-04-30T16:53:23.040Z,12.00
2023-04-30T16:58:26.617Z,11.99
2023-04-30T17:03:31.392Z,11.98
2023-04-30T17:08:35.051Z,11.44
2023-04-30T17:13:39.060Z,11.49
2023-04-30T17:18:42.901Z,11.49
2023-04-30T17:23:46.656Z,11.28
2023-04-30T17:28:50.786Z,11.43
2023-04-30T17:33:55.591Z,11.40
2023-04-30T17:38:59.715Z,11.38
2023-04-30T17:44:04.046Z,11.07
2023-04-30T17:49:08.376Z,11.62
2023-04-30T17:54:12.591Z,11.21
2023-04-30T17:59:16.268Z,11.21
2023-04-30T18:04:20.418Z,11.40
2023-04-30T18:09:24.219Z,11.36
2023-04-30T18:14:27.616Z,11.57
2023-04-30T18:19:32.852Z,11.51
2023-04-30T18:24:36.736Z,11.46
2023-04-30T18:29:40.207Z,11.60
2023-04-30T18:34:44.000Z,11.48
2023-04-30T18:39:47.665Z,11.47
2023-04-30T18:44:51.576Z,11.47
2023-04-30T18:49:55.916Z,11.15
2023-04-30T18:54:59.732Z,11.20
2023-04-30T19:00:02.910Z,10.88
2023-04-30T19:05:07.029Z,11.20
2023-04-30T19:10:11.105Z,11.08
2023-04-30T19:15:15.450Z,11.30
2023-04-30T19:20:18.570Z,11.41
2023-04-30T19:25:23.748Z,11.50
2023-04-30T19:33:17.501Z,11.51
2023-04-30T19:38:22.623Z,11.40
2023-04-30T19:43:26.905Z,11.36
2023-04-30T19:48:31.804Z,11.27
2023-04-30T19:53:35.826Z,11.39
2023-04-30T19:58:40.215Z,11.40
2023-04-30T20:03:45.048Z,11.45
2023-04-30T20:08:49.157Z,11.44
2023-04-30T20:13:56.628Z,11.35
2023-04-30T20:18:59.852Z,11.35
2023-04-30T20:24:04.641Z,11.39
2023-04-30T20:29:08.688Z,11.32
2023-04-30T20:34:13.459Z,11.25
2023-04-30T20:39:18.119Z,11.33
2023-04-30T20:44:21.519Z,11.31
2023-04-30T20:49:27.475Z,11.33
2023-04-30T20:54:31.231Z,11.40
2023-04-30T20:59:36.909Z,11.27
2023-04-30T21:04:41.088Z,11.36
2023-04-30T21:09:44.924Z,11.40
2023-04-30T21:14:48.155Z,11.24
2023-04-30T21:19:52.153Z,11.26
2023-04-30T21:24:56.019Z,11.32
2023-04-30T21:29:59.243Z,11.37
2023-04-30T21:35:02.839Z,11.37
2023-04-30T21:40:07.042Z,11.42
2023-04-30T21:45:10.986Z,11.54
2023-04-30T21:50:15.029Z,11.46
2023-04-30T21:55:18.558Z,11.50
2023-04-30T22:00:23.042Z,11.53
2023-04-30T22:05:26.507Z,11.48
2023-04-30T22:10:31.943Z,11.50
2023-04-30T22:15:47.096Z,11.48
2023-04-30T22:20:52.571Z,11.54
2023-04-30T22:25:56.426Z,11.54
2023-04-30T22:31:03.153Z,11.58
2023-04-30T22:36:07.513Z,11.49
2023-04-30T22:41:11.698Z,11.46
2023-04-30T22:46:15.714Z,11.40
2023-04-30T22:51:19.754Z,11.36
2023-04-30T22:56:23.573Z,11.33
2023-04-30T23:01:28.387Z,11.45
2023-04-30T23:06:33.159Z,11.44
2023-04-30T23:11:37.434Z,11.45
2023-04-30T23:33:36.803Z,11.08
2023-04-30T23:38:40.222Z,10.95
2023-04-30T23:43:43.936Z,10.81
2023-04-30T23:48:48.068Z,10.79
2023-04-30T23:53:52.092Z,10.84
2023-04-30T23:58:56.085Z,11.22
